createdAt,value
2022-12-03T00:01:23.811Z,9.40
2022-12-03T00:03:50.965Z,11.20
2022-12-03T00:06:18.307Z,10.25
2022-12-03T00:08:45.207Z,10.50
2022-12-03T00:11:12.151Z,9.88
2022-12-03T00:13:38.882Z,10.52
2022-12-03T00:16:05.902Z,11.82
2022-12-03T00:18:33.555Z,11.45
2022-12-03T00:21:00.425Z,11.63
2022-12-03T00:23:27.568Z,11.82
2022-12-03T00:25:54.166Z,7.50
2022-12-03T00:28:21.059Z,6.72
2022-12-03T00:30:47.903Z,11.77
2022-12-03T00:33:14.659Z,11.52
2022-12-03T00:35:41.936Z,11.45
2022-12-03T00:38:08.618Z,10.63
2022-12-03T00:40:35.391Z,11.63
2022-12-03T00:43:02.182Z,10.18
2022-12-03T00:45:28.830Z,10.88
2022-12-03T00:47:55.638Z,9.75
2022-12-03T00:50:22.843Z,11.25
2022-12-03T00:52:50.209Z,12.10
2022-12-03T00:55:17.276Z,11.88
2022-12-03T00:57:44.119Z,11.63
2022-12-03T01:00:12.233Z,12.65
2022-12-03T01:02:38.797Z,10.50
2022-12-03T01:05:06.320Z,11.98
2022-12-03T01:07:33.194Z,11.60
2022-12-03T01:09:59.975Z,11.85
2022-12-03T01:12:26.688Z,12.05
2022-12-03T01:14:53.606Z,11.15
2022-12-03T01:17:21.139Z,11.63
2022-12-03T01:19:48.683Z,12.48
2022-12-03T01:22:15.354Z,11.75
2022-12-03T01:24:42.154Z,12.35
2022-12-03T01:27:09.102Z,12.57
2022-12-03T01:29:35.786Z,13.30
2022-12-03T01:32:17.544Z,12.75
2022-12-03T01:34:48.545Z,11.93
2022-12-03T01:37:16.057Z,11.18
2022-12-03T01:39:43.045Z,13.00
2022-12-03T01:42:16.168Z,9.45
2022-12-03T01:44:43.637Z,9.15
2022-12-03T01:47:16.407Z,10.48
2022-12-03T01:49:44.683Z,11.93
2022-12-03T01:52:18.129Z,11.95
2022-12-03T01:54:58.137Z,11.65
2022-12-03T01:57:26.213Z,12.18
2022-12-03T01:59:55.598Z,12.95
2022-12-03T02:02:25.820Z,11.60
2022-12-03T02:04:54.268Z,12.18
2022-12-03T02:07:28.507Z,12.85
2022-12-03T02:09:57.752Z,11.77
2022-12-03T02:12:49.067Z,12.90
2022-12-03T02:15:15.964Z,12.18
2022-12-03T02:17:43.378Z,12.80
2022-12-03T02:20:12.478Z,12.10
2022-12-03T02:23:10.363Z,13.50
2022-12-03T02:25:38.204Z,10.90
2022-12-03T02:28:08.007Z,10.52
2022-12-03T02:30:35.558Z,12.70
2022-12-03T02:33:03.216Z,12.10
2022-12-03T02:35:34.893Z,13.70
2022-12-03T02:38:24.052Z,13.55
2022-12-03T02:40:56.829Z,11.60
2022-12-03T02:43:24.106Z,13.88
2022-12-03T02:45:53.768Z,12.93
2022-12-03T02:48:30.891Z,10.50
2022-12-03T02:51:01.027Z,14.70
2022-12-03T02:53:35.862Z,13.43
2022-12-03T02:56:04.013Z,13.00
2022-12-03T02:58:32.848Z,14.93
2022-12-03T03:01:01.645Z,12.63
2022-12-03T03:03:30.035Z,14.63
2022-12-03T03:05:59.087Z,13.25
2022-12-03T03:08:27.009Z,12.77
2022-12-03T03:10:55.006Z,14.82
2022-12-03T03:13:22.323Z,12.63
2022-12-03T03:15:49.227Z,14.20
2022-12-03T03:18:16.932Z,14.20
2022-12-03T03:20:44.226Z,10.65
2022-12-03T03:23:10.714Z,14.15
2022-12-03T03:25:39.325Z,13.82
2022-12-03T03:28:07.592Z,13.95
2022-12-03T03:30:35.959Z,12.90
2022-12-03T03:33:03.437Z,15.75
2022-12-03T03:35:30.491Z,15.35
2022-12-03T03:37:58.749Z,14.60
2022-12-03T03:40:26.714Z,15.20
2022-12-03T03:42:56.104Z,14.60
2022-12-03T03:45:28.784Z,14.50
2022-12-03T03:47:58.200Z,11.30
2022-12-03T03:50:25.964Z,13.73
2022-12-03T03:52:53.257Z,15.63
2022-12-03T03:55:20.609Z,14.02
2022-12-03T03:57:48.295Z,14.32
2022-12-03T04:00:17.081Z,14.38
2022-12-03T04:02:44.042Z,15.00
2022-12-03T04:05:19.610Z,13.73
2022-12-03T04:07:46.728Z,16.08
2022-12-03T04:10:33.165Z,15.13
2022-12-03T04:13:00.895Z,15.32
2022-12-03T04:15:28.637Z,15.40
2022-12-03T04:18:25.441Z,15.32
2022-12-03T04:21:12.136Z,12.75
2022-12-03T04:23:41.218Z,10.23
2022-12-03T04:26:26.457Z,15.93
2022-12-03T04:28:53.274Z,15.40
2022-12-03T04:31:38.713Z,13.85
2022-12-03T04:34:24.299Z,14.35
2022-12-03T04:36:51.440Z,15.93
2022-12-03T04:39:18.168Z,14.00
2022-12-03T04:41:45.245Z,14.38
2022-12-03T04:44:30.453Z,14.18
2022-12-03T04:46:57.275Z,14.32
2022-12-03T04:49:24.457Z,14.93
2022-12-03T04:51:51.883Z,14.20
2022-12-03T04:54:18.959Z,13.95
2022-12-03T04:56:45.897Z,9.07
2022-12-03T04:59:16.327Z,15.38
2022-12-03T05:01:43.935Z,13.55
2022-12-03T05:04:11.660Z,13.32
2022-12-03T05:06:39.202Z,14.15
2022-12-03T05:09:06.742Z,13.65
2022-12-03T05:11:34.402Z,14.98
2022-12-03T05:14:01.616Z,15.50
2022-12-03T05:16:29.302Z,12.93
2022-12-03T05:18:56.466Z,13.75
2022-12-03T05:21:23.679Z,15.68
2022-12-03T05:23:51.845Z,14.88
2022-12-03T05:26:20.153Z,13.82
2022-12-03T05:28:49.466Z,14.23
2022-12-03T05:31:16.759Z,15.60
2022-12-03T05:33:44.582Z,16.48
2022-12-03T05:36:11.938Z,15.45
2022-12-03T05:38:39.053Z,12.85
2022-12-03T05:41:26.305Z,15.82
2022-12-03T05:43:53.135Z,9.55
2022-12-03T05:46:20.101Z,15.13
2022-12-03T05:48:47.054Z,14.38
2022-12-03T05:51:13.739Z,15.63
2022-12-03T05:53:40.646Z,14.30
2022-12-03T05:56:07.793Z,16.42
2022-12-03T05:58:34.509Z,14.50
2022-12-03T06:01:01.343Z,15.90
2022-12-03T06:03:28.325Z,14.40
2022-12-03T06:05:55.422Z,11.63
2022-12-03T06:08:22.094Z,13.93
2022-12-03T06:10:49.148Z,15.30
2022-12-03T06:13:16.362Z,15.80
2022-12-03T06:15:44.162Z,16.08
2022-12-03T06:18:11.487Z,13.70
2022-12-03T06:20:38.531Z,13.57
2022-12-03T06:23:07.836Z,14.50
2022-12-03T06:25:34.838Z,15.43
2022-12-03T06:28:02.154Z,17.15
2022-12-03T06:30:30.274Z,13.70
2022-12-03T06:32:57.840Z,12.82
2022-12-03T06:35:25.606Z,12.80
2022-12-03T06:37:52.648Z,15.40
2022-12-03T06:40:20.890Z,14.63
2022-12-03T06:42:47.776Z,14.43
2022-12-03T06:45:14.700Z,14.35
2022-12-03T06:47:43.161Z,15.45
2022-12-03T06:50:10.925Z,16.23
2022-12-03T06:52:38.219Z,16.90
2022-12-03T06:55:06.930Z,14.73
2022-12-03T06:57:34.309Z,13.27
2022-12-03T07:00:02.321Z,10.50
2022-12-03T07:02:29.577Z,15.90
2022-12-03T07:04:56.848Z,13.23
2022-12-03T07:07:26.319Z,15.57
2022-12-03T07:09:53.489Z,15.50
2022-12-03T07:12:20.333Z,15.93
2022-12-03T07:14:49.517Z,12.13
2022-12-03T07:17:16.936Z,15.40
2022-12-03T07:19:43.809Z,16.52
2022-12-03T07:22:10.620Z,15.05
2022-12-03T07:24:37.472Z,14.85
2022-12-03T07:27:04.201Z,16.05
2022-12-03T07:29:31.031Z,15.52
2022-12-03T07:31:58.521Z,14.88
2022-12-03T07:34:25.444Z,16.05
2022-12-03T07:36:52.420Z,15.57
2022-12-03T07:39:19.184Z,15.75
2022-12-03T07:41:46.195Z,14.88
2022-12-03T07:44:14.668Z,15.90
2022-12-03T07:46:42.909Z,15.05
2022-12-03T07:49:09.793Z,14.13
2022-12-03T07:51:36.550Z,14.52
2022-12-03T07:54:03.496Z,15.15
2022-12-03T07:56:30.274Z,13.68
2022-12-03T07:58:57.238Z,15.70
2022-12-03T08:01:24.209Z,11.93
2022-12-03T08:03:51.171Z,13.45
2022-12-03T08:06:17.880Z,11.52
2022-12-03T08:08:44.569Z,14.57
2022-12-03T08:11:15.039Z,14.85
2022-12-03T08:13:42.624Z,14.77
2022-12-03T08:16:16.921Z,11.18
2022-12-03T08:18:45.044Z,15.73
2022-12-03T08:21:14.455Z,14.55
2022-12-03T08:23:41.515Z,14.13
2022-12-03T08:26:24.249Z,14.40
2022-12-03T08:28:52.707Z,15.00
2022-12-03T08:31:26.835Z,13.18
2022-12-03T08:34:18.796Z,10.73
2022-12-03T08:36:47.649Z,11.55
2022-12-03T08:39:35.135Z,13.65
2022-12-03T08:42:23.628Z,10.10
2022-12-03T08:44:53.530Z,11.32
2022-12-03T08:47:22.020Z,10.38
2022-12-03T08:50:03.371Z,11.20
2022-12-03T08:52:34.723Z,14.43
2022-12-03T08:55:33.562Z,13.52
2022-12-03T08:58:16.654Z,13.07
2022-12-03T09:00:46.447Z,14.25
2022-12-03T09:03:18.615Z,13.68
2022-12-03T09:05:46.214Z,14.23
2022-12-03T09:08:13.257Z,14.35
2022-12-03T09:10:40.669Z,14.93
2022-12-03T09:13:10.746Z,13.70
2022-12-03T09:15:40.113Z,13.18
2022-12-03T09:18:10.830Z,14.80
2022-12-03T09:20:40.063Z,14.80
2022-12-03T09:23:07.342Z,14.07
2022-12-03T09:25:34.545Z,13.52
2022-12-03T09:28:01.436Z,13.70
2022-12-03T09:30:28.603Z,13.02
2022-12-03T09:32:55.365Z,14.70
2022-12-03T09:35:22.774Z,13.68
2022-12-03T09:37:49.538Z,12.25
2022-12-03T09:40:20.262Z,14.02
2022-12-03T09:42:47.580Z,13.00
2022-12-03T09:45:15.231Z,12.80
2022-12-03T09:47:46.064Z,11.82
2022-12-03T09:50:21.772Z,12.65
2022-12-03T09:52:50.987Z,12.80
2022-12-03T09:55:22.845Z,13.40
2022-12-03T09:57:51.883Z,12.93
2022-12-03T10:00:27.231Z,12.60
2022-12-03T10:03:01.610Z,14.57
2022-12-03T10:05:29.546Z,13.45
2022-12-03T10:08:04.593Z,14.57
2022-12-03T10:10:34.075Z,13.95
2022-12-03T10:13:01.659Z,13.48
2022-12-03T10:15:28.439Z,14.38
2022-12-03T10:17:57.351Z,15.77
2022-12-03T10:20:26.086Z,15.38
2022-12-03T10:22:53.569Z,13.70
2022-12-03T10:25:23.634Z,13.25
2022-12-03T10:28:06.405Z,14.60
2022-12-03T10:30:33.395Z,13.45
2022-12-03T10:33:17.374Z,16.63
2022-12-03T10:35:45.846Z,15.80
2022-12-03T10:38:24.186Z,14.75
2022-12-03T10:40:51.264Z,14.05
2022-12-03T10:43:18.162Z,13.70
2022-12-03T10:45:48.192Z,14.00
2022-12-03T10:48:21.004Z,11.48
2022-12-03T10:50:55.947Z,14.80
2022-12-03T10:53:30.299Z,14.60
2022-12-03T10:56:03.557Z,14.57
2022-12-03T10:58:41.613Z,13.23
2022-12-03T11:01:21.870Z,13.95
2022-12-03T11:03:53.889Z,16.15
2022-12-03T11:06:23.424Z,14.27
2022-12-03T11:08:57.894Z,15.30
2022-12-03T11:11:32.173Z,15.10
2022-12-03T11:14:02.490Z,13.70
2022-12-03T11:16:43.405Z,13.30
2022-12-03T11:19:13.425Z,15.63
2022-12-03T11:22:11.577Z,15.27
2022-12-03T11:25:22.263Z,9.10
2022-12-03T11:28:15.507Z,9.63
2022-12-03T11:30:53.321Z,13.43
2022-12-03T11:33:33.757Z,13.77
2022-12-03T11:36:05.919Z,12.93
2022-12-03T11:38:54.113Z,13.43
2022-12-03T11:41:23.487Z,15.07
2022-12-03T11:44:00.040Z,14.20
2022-12-03T11:46:40.863Z,11.52
2022-12-03T11:49:37.521Z,14.98
2022-12-03T11:52:20.767Z,13.88
2022-12-03T11:54:53.610Z,13.98
2022-12-03T11:57:39.031Z,10.07
2022-12-03T12:00:17.604Z,12.23
2022-12-03T12:02:44.859Z,12.55
2022-12-03T12:05:28.124Z,11.52
2022-12-03T12:08:03.789Z,9.93
2022-12-03T12:10:49.187Z,10.85
2022-12-03T12:13:51.796Z,9.75
2022-12-03T12:16:38.657Z,12.27
2022-12-03T12:19:35.020Z,11.57
2022-12-03T12:22:27.401Z,10.98
2022-12-03T12:24:57.209Z,11.20
2022-12-03T12:27:34.660Z,8.13
2022-12-03T12:30:08.442Z,10.32
2022-12-03T12:35:29.542Z,10.25
2022-12-03T12:37:59.976Z,10.50
2022-12-03T12:40:30.745Z,8.25
2022-12-03T12:42:59.076Z,8.23
2022-12-03T12:45:29.374Z,10.20
2022-12-03T12:48:14.818Z,10.50
2022-12-03T12:50:44.162Z,12.18
2022-12-03T12:53:10.942Z,8.55
2022-12-03T12:55:41.884Z,11.80
2022-12-03T12:58:15.280Z,13.23
2022-12-03T13:00:42.759Z,11.95
2022-12-03T13:03:12.821Z,10.15
2022-12-03T13:05:45.832Z,12.80
2022-12-03T13:08:21.106Z,11.90
2022-12-03T13:10:48.277Z,12.38
2022-12-03T13:13:16.684Z,11.98
2022-12-03T13:16:00.222Z,12.45
2022-12-03T13:18:35.442Z,13.25
2022-12-03T13:21:26.867Z,12.35
2022-12-03T13:23:58.545Z,12.05
2022-12-03T13:26:38.662Z,13.60
2022-12-03T13:29:12.317Z,11.95
2022-12-03T13:31:43.714Z,9.38
2022-12-03T13:34:20.791Z,11.30
2022-12-03T13:36:53.488Z,10.93
2022-12-03T13:39:33.531Z,12.40
2022-12-03T13:42:33.743Z,14.13
2022-12-03T13:45:05.988Z,11.55
2022-12-03T13:47:32.704Z,13.40
2022-12-03T13:50:05.391Z,13.10
2022-12-03T13:52:35.038Z,12.57
2022-12-03T13:55:03.723Z,10.32
2022-12-03T13:57:30.556Z,12.68
2022-12-03T13:59:57.611Z,12.52
2022-12-03T14:02:26.027Z,11.15
2022-12-03T14:05:00.489Z,13.13
2022-12-03T14:07:28.517Z,12.00
2022-12-03T14:09:55.791Z,13.70
2022-12-03T14:12:27.772Z,12.68
2022-12-03T14:14:55.170Z,11.18
2022-12-03T14:17:22.696Z,12.65
2022-12-03T14:19:50.163Z,13.85
2022-12-03T14:22:21.720Z,10.55
2022-12-03T14:24:50.745Z,13.07
2022-12-03T14:27:18.389Z,13.10
2022-12-03T14:29:45.291Z,13.27
2022-12-03T14:32:12.628Z,13.73
2022-12-03T14:34:39.844Z,11.85
2022-12-03T14:37:08.115Z,14.25
2022-12-03T14:39:35.270Z,14.75
2022-12-03T14:42:14.096Z,14.77
2022-12-03T14:44:43.185Z,10.77
2022-12-03T14:47:12.753Z,12.60
2022-12-03T14:49:40.532Z,15.55
2022-12-03T14:52:11.776Z,13.43
2022-12-03T14:54:44.322Z,12.55
2022-12-03T14:57:13.153Z,13.73
2022-12-03T14:59:45.637Z,13.05
2022-12-03T15:02:13.335Z,8.82
2022-12-03T15:04:42.900Z,15.70
2022-12-03T15:07:15.373Z,14.82
2022-12-03T15:09:42.233Z,15.13
2022-12-03T15:12:09.549Z,13.73
2022-12-03T15:14:36.257Z,13.98
2022-12-03T15:17:03.302Z,14.68
2022-12-03T15:19:30.908Z,12.93
2022-12-03T15:22:05.326Z,12.63
2022-12-03T15:24:32.561Z,14.50
2022-12-03T15:27:01.019Z,11.25
2022-12-03T15:29:28.269Z,13.90
2022-12-03T15:31:55.772Z,14.13
2022-12-03T15:34:25.407Z,14.65
2022-12-03T15:36:53.432Z,14.32
2022-12-03T15:39:20.516Z,15.00
2022-12-03T15:41:48.445Z,15.85
2022-12-03T15:44:15.365Z,15.43
2022-12-03T15:46:43.641Z,14.45
2022-12-03T15:49:11.229Z,15.52
2022-12-03T15:51:38.359Z,15.45
2022-12-03T15:54:08.019Z,14.50
2022-12-03T15:56:37.754Z,15.18
2022-12-03T15:59:05.940Z,14.95
2022-12-03T16:01:33.639Z,14.95
2022-12-03T16:04:05.397Z,14.90
2022-12-03T16:06:32.546Z,11.55
2022-12-03T16:08:59.827Z,13.80
2022-12-03T16:11:29.280Z,14.38
2022-12-03T16:13:57.561Z,13.05
2022-12-03T16:16:25.197Z,15.77
2022-12-03T16:18:55.074Z,15.85
2022-12-03T16:21:26.765Z,14.07
2022-12-03T16:23:55.699Z,14.15
2022-12-03T16:26:26.190Z,14.80
2022-12-03T16:28:53.229Z,16.70
2022-12-03T16:31:20.607Z,15.45
2022-12-03T16:33:48.180Z,15.57
2022-12-03T16:36:15.743Z,15.85
2022-12-03T16:38:43.093Z,14.25
2022-12-03T16:41:10.299Z,16.77
2022-12-03T16:43:40.930Z,16.00
2022-12-03T16:46:15.086Z,15.80
2022-12-03T16:48:42.144Z,11.88
2022-12-03T16:51:09.744Z,13.85
2022-12-03T16:53:39.052Z,10.75
2022-12-03T16:56:06.135Z,16.08
2022-12-03T16:58:33.186Z,14.00
2022-12-03T17:01:03.408Z,13.45
2022-12-03T17:03:33.842Z,16.98
2022-12-03T17:06:01.803Z,16.38
2022-12-03T17:08:28.707Z,13.65
2022-12-03T17:10:55.926Z,11.18
2022-12-03T17:13:25.818Z,14.60
2022-12-03T17:15:52.905Z,12.65
2022-12-03T17:18:19.830Z,15.85
2022-12-03T17:20:47.056Z,16.15
2022-12-03T17:23:14.000Z,15.98
2022-12-03T17:25:41.289Z,15.55
2022-12-03T17:28:08.390Z,15.13
2022-12-03T17:30:37.456Z,15.75
2022-12-03T17:33:04.638Z,16.92
2022-12-03T17:35:31.689Z,16.95
2022-12-03T17:37:58.767Z,17.30
2022-12-03T17:40:31.482Z,20.92
2022-12-03T17:42:58.495Z,18.58
2022-12-03T17:45:26.425Z,17.27
2022-12-03T17:48:01.841Z,15.27
2022-12-03T17:50:28.726Z,17.25
2022-12-03T17:52:55.479Z,17.75
2022-12-03T17:55:31.294Z,16.48
2022-12-03T17:58:04.342Z,17.15
2022-12-03T18:00:33.017Z,19.05
2022-12-03T18:03:03.058Z,16.55
2022-12-03T18:05:30.362Z,14.95
2022-12-03T18:07:57.696Z,14.38
2022-12-03T18:10:24.984Z,17.08
2022-12-03T18:12:56.958Z,16.60
2022-12-03T18:15:28.092Z,16.27
2022-12-03T18:17:58.091Z,18.23
2022-12-03T18:20:25.431Z,16.85
2022-12-03T18:22:52.756Z,19.02
2022-12-03T18:25:19.921Z,15.68
2022-12-03T18:27:46.867Z,14.98
2022-12-03T18:30:14.303Z,15.65
2022-12-03T18:32:42.842Z,14.07
2022-12-03T18:35:10.156Z,16.70
2022-12-03T18:37:37.523Z,16.60
2022-12-03T18:40:12.461Z,16.08
2022-12-03T18:42:40.261Z,17.90
2022-12-03T18:45:13.076Z,13.25
2022-12-03T18:47:41.353Z,17.02
2022-12-03T18:50:09.869Z,15.57
2022-12-03T18:52:43.094Z,16.27
2022-12-03T18:55:19.549Z,17.55
2022-12-03T18:57:47.227Z,18.25
2022-12-03T19:00:14.772Z,17.70
2022-12-03T19:05:32.378Z,16.17
2022-12-03T19:08:06.748Z,16.55
2022-12-03T19:10:33.740Z,17.25
2022-12-03T19:13:04.220Z,17.30
2022-12-03T19:15:34.486Z,17.70
2022-12-03T19:18:04.583Z,17.35
2022-12-03T19:20:31.814Z,18.60
2022-12-03T19:23:01.816Z,18.02
2022-12-03T19:25:31.140Z,13.15
2022-12-03T19:28:00.216Z,18.65
2022-12-03T19:30:31.780Z,14.05
2022-12-03T19:32:58.549Z,18.15
2022-12-03T19:35:25.199Z,17.65
2022-12-03T19:37:51.889Z,18.52
2022-12-03T19:40:18.492Z,16.33
2022-12-03T19:42:45.173Z,17.92
2022-12-03T19:45:12.428Z,17.92
2022-12-03T19:47:38.965Z,18.17
2022-12-03T19:50:06.357Z,17.90
2022-12-03T19:52:36.275Z,18.98
2022-12-03T19:55:03.175Z,17.20
2022-12-03T19:57:29.894Z,18.77
2022-12-03T19:59:56.751Z,19.23
2022-12-03T20:02:23.838Z,17.20
2022-12-03T20:04:50.559Z,19.80
2022-12-03T20:07:20.538Z,18.52
2022-12-03T20:09:50.417Z,18.02
2022-12-03T20:12:17.751Z,17.35
2022-12-03T20:14:45.212Z,17.85
2022-12-03T20:17:11.815Z,17.67
2022-12-03T20:19:38.327Z,19.35
2022-12-03T20:22:04.916Z,19.55
2022-12-03T20:24:31.551Z,20.55
2022-12-03T20:26:58.360Z,20.67
2022-12-03T20:29:24.966Z,15.00
2022-12-03T20:31:51.701Z,16.98
2022-12-03T20:34:18.406Z,19.98
2022-12-03T20:36:45.598Z,19.45
2022-12-03T20:39:12.534Z,19.83
2022-12-03T20:41:39.167Z,20.88
2022-12-03T20:44:07.567Z,19.08
2022-12-03T20:46:34.813Z,20.85
2022-12-03T20:49:01.625Z,20.27
2022-12-03T20:51:30.142Z,18.48
2022-12-03T20:53:58.989Z,19.33
2022-12-03T20:56:28.698Z,17.85
2022-12-03T20:58:55.269Z,18.33
2022-12-03T21:01:27.557Z,14.88
2022-12-03T21:03:55.943Z,20.55
2022-12-03T21:06:25.106Z,17.48
2022-12-03T21:08:56.639Z,21.08
2022-12-03T21:11:26.069Z,20.08
2022-12-03T21:13:53.902Z,21.20
2022-12-03T21:16:39.768Z,20.85
2022-12-03T21:19:10.642Z,19.15
2022-12-03T21:21:37.484Z,19.25
2022-12-03T21:24:04.418Z,18.48
2022-12-03T21:26:32.643Z,19.05
2022-12-03T21:29:01.307Z,21.23
2022-12-03T21:31:30.072Z,17.10
2022-12-03T21:33:57.098Z,17.50
2022-12-03T21:36:25.426Z,19.52
2022-12-03T21:38:52.480Z,17.40
2022-12-03T21:41:19.156Z,20.20
2022-12-03T21:43:46.228Z,17.55
2022-12-03T21:47:08.327Z,15.85
2022-12-03T21:49:03.766Z,19.48
2022-12-03T21:51:30.335Z,20.20
2022-12-03T21:53:57.240Z,19.63
2022-12-03T21:56:23.877Z,19.77
2022-12-03T21:58:50.502Z,20.20
2022-12-03T22:01:20.592Z,20.65
2022-12-03T22:03:47.942Z,14.50
2022-12-03T22:06:15.740Z,20.95
2022-12-03T22:08:42.858Z,22.42
2022-12-03T22:11:23.592Z,20.05
2022-12-03T22:13:51.249Z,19.92
2022-12-03T22:16:20.651Z,20.52
2022-12-03T22:18:47.859Z,19.15
2022-12-03T22:21:17.882Z,21.13
2022-12-03T22:23:45.065Z,19.02
2022-12-03T22:26:15.651Z,21.35
2022-12-03T22:28:44.002Z,18.58
2022-12-03T22:31:11.052Z,21.88
2022-12-03T22:33:37.988Z,22.75
2022-12-03T22:36:18.010Z,20.27
2022-12-03T22:38:49.381Z,22.17
2022-12-03T22:41:16.076Z,18.65
2022-12-03T22:43:43.120Z,22.75
2022-12-03T22:46:12.921Z,21.52
2022-12-03T22:48:41.452Z,22.55
2022-12-03T22:51:17.591Z,23.38
2022-12-03T22:53:44.862Z,21.73
2022-12-03T22:56:11.775Z,23.15
2022-12-03T22:58:40.139Z,21.25
2022-12-03T23:01:07.536Z,18.95
2022-12-03T23:03:34.387Z,21.00
2022-12-03T23:06:01.372Z,20.38
2022-12-03T23:08:27.981Z,23.88
2022-12-03T23:10:54.734Z,21.20
2022-12-03T23:13:21.256Z,23.60
2022-12-03T23:15:50.668Z,19.77
2022-12-03T23:18:18.582Z,23.00
2022-12-03T23:20:51.153Z,20.38
2022-12-03T23:23:19.565Z,17.27
2022-12-03T23:26:06.650Z,21.42
2022-12-03T23:28:35.073Z,21.70
2022-12-03T23:31:02.007Z,20.42
2022-12-03T23:33:28.724Z,20.73
2022-12-03T23:35:55.535Z,21.38
2022-12-03T23:38:22.280Z,22.63
2022-12-03T23:40:50.058Z,21.15
2022-12-03T23:43:16.659Z,23.65
2022-12-03T23:45:43.174Z,24.08
2022-12-03T23:48:10.311Z,23.60
2022-12-03T23:50:41.224Z,23.67
2022-12-03T23:53:08.435Z,21.23
2022-12-03T23:55:38.908Z,21.25
2022-12-03T23:58:05.681Z,24.23
